Time;durP1;ratioP1;P1;durP2;ratioP2;P2;SDS_P1;SDS_P2;PMS_P1;PMS_P2;Temp;Humidity;BMP_temperature;BMP_pressure;BME280_temperature;BME280_humidity;BME280_pressure;Samples;Min_cycle;Max_cycle;Signal;HPM_P1;HPM_P2
2022/05/14 00:01:15;;;;;;;6.10;2.83;;;14.40;99.90;;;;;;5017703;28;20959;-90
2022/05/14 00:03:43;;;;;;;8.70;3.10;;;14.40;99.90;;;;;;5017710;28;20533;-90
2022/05/14 00:06:13;;;;;;;7.73;3.10;;;14.30;99.90;;;;;;5017827;28;20460;-89
2022/05/14 00:08:41;;;;;;;6.33;2.87;;;14.20;99.90;;;;;;5017240;28;20968;-89
2022/05/14 00:13:54;;;;;;;5.20;2.80;;;14.20;99.90;;;;;;5018595;28;20424;-89
2022/05/14 00:16:23;;;;;;;7.10;3.23;;;14.10;99.90;;;;;;5018417;28;20464;-89
2022/05/14 00:18:52;;;;;;;7.50;2.97;;;14.10;99.90;;;;;;5021247;28;20460;-89
2022/05/14 00:21:20;;;;;;;6.70;3.23;;;14.10;99.90;;;;;;5020739;28;20535;-90
2022/05/14 00:23:53;;;;;;;7.03;2.97;;;14.10;99.90;;;;;;5019399;28;20429;-89
2022/05/14 00:26:21;;;;;;;6.00;3.10;;;14.00;99.90;;;;;;5020689;28;20449;-89
2022/05/14 00:28:48;;;;;;;5.03;2.83;;;13.90;99.90;;;;;;5018316;28;20449;-90
2022/05/14 00:31:16;;;;;;;4.70;2.80;;;13.90;99.90;;;;;;5019832;28;20445;-88
2022/05/14 00:33:43;;;;;;;6.10;3.20;;;13.90;99.90;;;;;;5019898;28;20474;-90
2022/05/14 00:36:12;;;;;;;6.70;2.60;;;13.90;99.90;;;;;;5023569;28;20815;-89
2022/05/14 00:38:40;;;;;;;5.63;3.00;;;13.90;99.90;;;;;;5021547;28;20452;-89
2022/05/14 00:41:08;;;;;;;8.33;2.30;;;13.80;99.90;;;;;;5038775;28;20409;-86
2022/05/14 00:43:47;;;;;;;6.33;3.30;;;13.80;99.90;;;;;;5040705;28;20463;-86
2022/05/14 00:46:17;;;;;;;5.50;2.87;;;13.80;99.90;;;;;;5027528;28;20514;-90
2022/05/14 00:48:45;;;;;;;4.93;2.13;;;13.80;99.90;;;;;;5018107;28;20506;-90
2022/05/14 00:51:17;;;;;;;6.23;2.63;;;13.70;99.90;;;;;;5017751;28;20451;-89
2022/05/14 00:53:48;;;;;;;5.70;2.33;;;13.70;99.90;;;;;;5018025;28;20481;-89
2022/05/14 00:56:18;;;;;;;5.70;2.57;;;13.60;99.90;;;;;;5017734;28;20500;-89
2022/05/14 00:58:49;;;;;;;5.93;2.60;;;13.60;99.90;;;;;;5018379;28;20483;-89
2022/05/14 01:01:16;;;;;;;5.43;2.93;;;13.50;99.90;;;;;;5017675;28;20449;-89
2022/05/14 01:03:43;;;;;;;8.13;2.60;;;13.50;99.90;;;;;;5018324;28;20528;-89
2022/05/14 01:06:14;;;;;;;3.60;2.07;;;13.40;99.90;;;;;;5022457;28;20452;-89
2022/05/14 01:08:43;;;;;;;8.27;2.63;;;13.40;99.90;;;;;;5023403;28;20492;-89
2022/05/14 01:11:10;;;;;;;8.03;2.90;;;13.30;99.90;;;;;;5020229;28;20409;-89
2022/05/14 01:13:37;;;;;;;5.90;2.07;;;13.20;99.90;;;;;;5035555;28;20434;-88
2022/05/14 01:16:05;;;;;;;5.07;2.27;;;13.30;99.90;;;;;;5030077;28;20435;-90
2022/05/14 01:18:36;;;;;;;10.10;2.80;;;13.20;99.90;;;;;;5020914;28;20501;-89
2022/05/14 01:21:19;;;;;;;5.70;2.60;;;13.20;99.90;;;;;;5018946;28;20393;-89
2022/05/14 01:26:56;;;;;;;5.63;3.10;;;13.20;99.90;;;;;;4976254;28;20482;-89
2022/05/14 01:29:25;;;;;;;6.87;2.67;;;13.10;99.90;;;;;;4975804;28;20430;-89
2022/05/14 01:31:54;;;;;;;5.13;2.73;;;13.10;99.90;;;;;;5001457;28;20520;-89
2022/05/14 01:34:24;;;;;;;7.40;2.43;;;13.10;99.90;;;;;;5017258;28;20429;-89
2022/05/14 01:36:55;;;;;;;6.53;2.63;;;13.10;99.90;;;;;;5018723;28;20421;-89
2022/05/14 01:39:22;;;;;;;5.37;2.50;;;13.10;99.90;;;;;;5020973;28;20489;-89
2022/05/14 01:41:49;;;;;;;5.57;2.93;;;13.10;99.90;;;;;;5028533;28;20446;-89
2022/05/14 01:44:18;;;;;;;6.00;2.50;;;13.10;99.90;;;;;;5025378;28;20464;-89
2022/05/14 01:46:45;;;;;;;4.30;2.30;;;13.10;99.90;;;;;;5019178;28;20499;-89
2022/05/14 01:49:12;;;;;;;5.80;2.67;;;13.20;99.90;;;;;;5017300;28;20502;-89
2022/05/14 01:51:39;;;;;;;5.23;2.60;;;13.20;99.90;;;;;;5021089;28;20486;-89
2022/05/14 01:54:06;;;;;;;3.70;2.23;;;13.30;99.90;;;;;;5020947;28;20500;-89
2022/05/14 01:56:33;;;;;;;5.63;2.37;;;13.40;99.90;;;;;;5018663;28;20448;-89
2022/05/14 01:59:00;;;;;;;4.60;2.37;;;13.30;99.90;;;;;;5029178;28;20477;-88
2022/05/14 02:01:32;;;;;;;3.80;1.83;;;13.20;99.90;;;;;;5026419;28;20482;-90
2022/05/14 02:04:01;;;;;;;6.13;2.83;;;13.20;99.90;;;;;;5032897;28;20462;-86
2022/05/14 02:06:29;;;;;;;6.70;3.00;;;13.30;99.90;;;;;;5038379;28;20440;-86
2022/05/14 02:08:57;;;;;;;10.33;2.47;;;13.20;99.90;;;;;;5049921;22;20469;-86
2022/05/14 02:11:24;;;;;;;8.87;2.57;;;13.30;99.90;;;;;;5025063;28;20436;-86
2022/05/14 02:13:52;;;;;;;4.30;2.00;;;13.30;99.90;;;;;;5026615;28;20511;-86
2022/05/14 02:16:20;;;;;;;4.87;2.27;;;13.40;99.90;;;;;;5029154;28;20971;-86
2022/05/14 02:18:48;;;;;;;7.87;2.33;;;13.30;99.90;;;;;;5023826;28;20521;-86
2022/05/14 02:21:18;;;;;;;5.77;2.00;;;13.30;99.90;;;;;;5020868;28;20452;-87
2022/05/14 02:23:45;;;;;;;5.00;2.33;;;13.20;99.90;;;;;;5020614;28;20432;-85
2022/05/14 02:26:13;;;;;;;5.40;2.23;;;13.20;99.90;;;;;;5021584;28;20429;-85
2022/05/14 02:28:41;;;;;;;4.10;2.30;;;13.00;99.90;;;;;;5022069;28;20474;-85
2022/05/14 02:31:09;;;;;;;6.07;2.53;;;12.90;99.90;;;;;;5022776;28;20429;-85
2022/05/14 02:33:36;;;;;;;7.60;2.63;;;12.80;99.90;;;;;;5021536;28;21003;-86
2022/05/14 02:36:07;;;;;;;8.00;2.60;;;12.80;99.90;;;;;;5026027;28;20884;-86
2022/05/14 02:38:36;;;;;;;5.33;2.50;;;12.80;99.90;;;;;;5019920;28;20478;-86
2022/05/14 02:41:02;;;;;;;9.77;2.60;;;12.70;99.90;;;;;;5019337;28;20440;-85
2022/05/14 02:43:29;;;;;;;5.70;2.40;;;12.80;99.90;;;;;;5020796;28;20456;-86
2022/05/14 02:45:56;;;;;;;5.87;1.83;;;12.80;99.90;;;;;;5021672;28;20449;-85
2022/05/14 02:48:23;;;;;;;5.30;2.47;;;12.90;99.90;;;;;;5021100;28;20489;-86
2022/05/14 02:50:50;;;;;;;5.50;2.30;;;12.90;99.90;;;;;;5032317;28;20450;-86
2022/05/14 02:53:21;;;;;;;8.80;2.10;;;12.80;99.90;;;;;;5022800;28;21013;-86
2022/05/14 02:55:48;;;;;;;6.20;2.17;;;12.70;99.90;;;;;;5022781;28;20485;-86
2022/05/14 02:59:06;;;;;;;4.97;2.27;;;12.70;99.90;;;;;;5020967;28;20501;-86
2022/05/14 03:01:02;;;;;;;8.77;2.67;;;12.70;99.90;;;;;;5025404;28;20452;-85
2022/05/14 03:03:29;;;;;;;5.27;2.10;;;12.80;99.90;;;;;;5025166;28;20467;-86
2022/05/14 03:05:56;;;;;;;4.90;2.10;;;12.70;99.90;;;;;;5026874;28;20446;-86
2022/05/14 03:08:24;;;;;;;7.23;2.37;;;12.60;99.90;;;;;;5026582;28;20470;-85
2022/05/14 03:10:53;;;;;;;5.43;2.90;;;12.50;99.90;;;;;;5026191;28;20817;-86
2022/05/14 03:13:20;;;;;;;5.03;2.23;;;12.60;99.90;;;;;;5026627;28;20549;-86
2022/05/14 03:15:46;;;;;;;4.93;2.50;;;12.60;99.90;;;;;;5025979;28;20553;-86
2022/05/14 03:18:17;;;;;;;5.30;2.47;;;12.50;99.90;;;;;;5026058;28;20474;-86
2022/05/14 03:20:44;;;;;;;6.33;2.23;;;12.50;99.90;;;;;;5026858;28;20415;-86
2022/05/14 03:23:11;;;;;;;4.87;2.00;;;12.50;99.90;;;;;;5025356;28;20516;-86
2022/05/14 03:25:39;;;;;;;5.97;2.37;;;12.50;99.90;;;;;;5025521;28;20503;-86
2022/05/14 03:28:06;;;;;;;6.30;2.77;;;12.40;99.90;;;;;;5027286;28;20444;-86
2022/05/14 03:30:33;;;;;;;4.90;2.50;;;12.40;99.90;;;;;;5026573;28;20833;-86
2022/05/14 03:33:00;;;;;;;5.27;2.70;;;12.40;99.90;;;;;;5026525;28;20494;-86
2022/05/14 03:35:27;;;;;;;4.70;2.50;;;12.40;99.90;;;;;;5034310;28;20457;-86
2022/05/14 03:37:54;;;;;;;6.20;2.70;;;12.40;99.90;;;;;;5031266;28;20471;-86
2022/05/14 03:40:20;;;;;;;4.03;2.13;;;12.40;99.90;;;;;;5028359;28;20506;-86
2022/05/14 03:42:49;;;;;;;5.93;2.57;;;12.40;99.90;;;;;;5027654;28;20516;-86
2022/05/14 03:45:15;;;;;;;6.40;2.90;;;12.40;99.90;;;;;;5035915;28;20416;-86
2022/05/14 03:47:42;;;;;;;7.10;2.80;;;12.40;99.90;;;;;;5035858;28;20516;-86
2022/05/14 03:50:10;;;;;;;5.57;2.60;;;12.40;99.90;;;;;;5036016;28;20476;-86
2022/05/14 03:52:37;;;;;;;7.87;2.57;;;12.40;99.90;;;;;;5029737;28;20469;-86
2022/05/14 03:55:04;;;;;;;4.53;2.30;;;12.40;99.90;;;;;;5030607;28;20886;-86
2022/05/14 03:57:31;;;;;;;6.80;2.27;;;12.40;99.90;;;;;;5030189;28;20458;-86
2022/05/14 04:00:01;;;;;;;6.53;2.60;;;12.40;99.90;;;;;;5030926;28;20490;-86
2022/05/14 04:02:28;;;;;;;7.80;2.47;;;12.40;99.90;;;;;;5034725;28;20466;-86
2022/05/14 04:04:55;;;;;;;6.53;3.03;;;12.50;99.90;;;;;;5030792;28;20442;-86
2022/05/14 04:07:22;;;;;;;5.70;2.20;;;12.60;99.90;;;;;;5034666;28;20421;-86
2022/05/14 04:09:49;;;;;;;4.00;2.17;;;12.60;99.90;;;;;;5025212;28;20872;-86
2022/05/14 04:12:16;;;;;;;4.77;2.60;;;12.60;99.90;;;;;;5024077;28;20499;-86
2022/05/14 04:14:43;;;;;;;7.10;2.63;;;12.60;99.90;;;;;;5021573;28;20512;-86
2022/05/14 04:17:11;;;;;;;6.33;2.57;;;12.70;99.90;;;;;;5021202;28;20441;-86
2022/05/14 04:19:38;;;;;;;5.87;2.33;;;12.70;99.90;;;;;;5021212;28;20552;-86
2022/05/14 04:22:06;;;;;;;5.97;2.80;;;12.70;99.90;;;;;;5021175;28;20445;-86
2022/05/14 04:24:33;;;;;;;5.87;2.83;;;12.70;99.90;;;;;;5022217;28;20425;-86
2022/05/14 04:27:00;;;;;;;3.63;2.23;;;12.70;99.90;;;;;;5021664;28;20515;-86
2022/05/14 04:29:27;;;;;;;5.33;2.60;;;12.70;99.90;;;;;;5035281;28;20493;-85
2022/05/14 04:31:54;;;;;;;6.30;2.70;;;12.60;99.90;;;;;;5022545;28;20929;-86
2022/05/14 04:34:22;;;;;;;5.30;3.00;;;12.60;99.90;;;;;;5022643;28;21090;-86
2022/05/14 04:36:49;;;;;;;7.63;3.53;;;12.40;99.90;;;;;;5033175;28;20461;-86
2022/05/14 04:39:16;;;;;;;5.60;2.73;;;12.40;99.90;;;;;;5038237;28;20436;-86
2022/05/14 04:41:43;;;;;;;5.10;2.67;;;12.40;99.90;;;;;;5024153;28;20901;-87
2022/05/14 04:44:10;;;;;;;3.70;2.40;;;12.40;99.90;;;;;;5023956;28;20486;-86
2022/05/14 04:46:37;;;;;;;5.80;2.37;;;12.50;99.90;;;;;;5021727;28;20413;-86
2022/05/14 04:49:04;;;;;;;6.17;2.73;;;12.50;99.90;;;;;;5021384;28;20457;-86
2022/05/14 04:51:33;;;;;;;4.10;2.43;;;12.60;99.90;;;;;;5023049;28;20944;-86
2022/05/14 04:54:00;;;;;;;5.83;3.17;;;12.70;99.90;;;;;;5021004;28;20843;-87
2022/05/14 04:56:27;;;;;;;4.93;2.60;;;12.80;99.90;;;;;;5021287;28;20511;-86
2022/05/14 04:58:54;;;;;;;5.30;2.63;;;12.80;99.90;;;;;;5023197;28;20505;-87
2022/05/14 05:01:20;;;;;;;9.70;2.80;;;12.90;99.90;;;;;;5021248;28;20520;-87
2022/05/14 05:03:46;;;;;;;7.03;2.90;;;13.00;99.90;;;;;;5019697;28;20977;-87
2022/05/14 05:06:14;;;;;;;6.33;2.60;;;13.10;99.90;;;;;;5019309;28;20409;-86
2022/05/14 05:08:43;;;;;;;7.10;2.80;;;13.20;99.90;;;;;;5023007;28;20589;-87
2022/05/14 05:11:10;;;;;;;4.50;2.30;;;13.30;99.90;;;;;;5018980;28;20509;-86
2022/05/14 05:13:38;;;;;;;5.33;2.70;;;13.30;99.90;;;;;;5023240;28;20490;-86
2022/05/14 05:16:05;;;;;;;5.40;2.50;;;13.40;99.90;;;;;;5022745;28;20452;-87
2022/05/14 05:18:32;;;;;;;6.27;2.60;;;13.50;99.90;;;;;;5025784;28;20587;-86
2022/05/14 05:20:59;;;;;;;4.60;2.50;;;13.60;99.90;;;;;;5018617;28;20890;-87
2022/05/14 05:23:27;;;;;;;4.77;2.70;;;13.60;99.90;;;;;;5015640;28;20446;-86
2022/05/14 05:25:56;;;;;;;4.27;2.63;;;13.70;99.90;;;;;;5020170;28;20457;-86
2022/05/14 05:28:23;;;;;;;6.20;2.60;;;13.90;99.90;;;;;;5027648;28;20497;-87
2022/05/14 05:30:50;;;;;;;7.97;2.37;;;14.00;99.90;;;;;;5027783;28;20477;-87
2022/05/14 05:33:20;;;;;;;7.10;2.87;;;14.10;99.90;;;;;;5021899;28;20455;-87
2022/05/14 05:35:51;;;;;;;5.63;2.97;;;14.10;99.90;;;;;;5038085;28;20461;-87
2022/05/14 05:38:19;;;;;;;6.50;3.00;;;14.30;99.90;;;;;;5024470;28;20458;-87
2022/05/14 05:40:46;;;;;;;6.67;2.77;;;14.30;99.90;;;;;;5017645;28;21010;-87
2022/05/14 05:43:15;;;;;;;5.93;2.57;;;14.40;99.90;;;;;;5018494;28;20477;-87
2022/05/14 05:45:46;;;;;;;9.70;3.07;;;14.50;99.90;;;;;;5018232;28;20828;-87
2022/05/14 05:48:14;;;;;;;6.37;2.97;;;14.50;99.90;;;;;;5020027;28;20483;-88
2022/05/14 05:50:43;;;;;;;5.63;3.23;;;14.70;99.90;;;;;;5019937;28;20523;-87
2022/05/14 05:53:10;;;;;;;7.37;3.03;;;14.70;99.90;;;;;;5027117;28;20454;-87
2022/05/14 05:58:22;;;;;;;5.07;2.80;;;14.90;99.90;;;;;;5023447;28;20483;-87
2022/05/14 06:00:49;;;;;;;10.87;3.07;;;15.10;99.90;;;;;;5020556;28;20485;-87
2022/05/14 06:03:16;;;;;;;5.20;2.80;;;15.20;99.90;;;;;;5024243;28;20849;-87
2022/05/14 06:05:44;;;;;;;7.33;2.50;;;15.20;99.90;;;;;;5024388;28;20898;-87
2022/05/14 06:08:20;;;;;;;7.40;2.70;;;15.30;99.90;;;;;;5022627;28;21034;-87
2022/05/14 06:10:47;;;;;;;4.43;2.73;;;15.50;99.90;;;;;;5019189;28;20427;-87
2022/05/14 06:13:14;;;;;;;6.33;2.70;;;15.60;99.90;;;;;;5017392;28;20865;-87
2022/05/14 06:15:43;;;;;;;5.40;2.30;;;15.60;99.90;;;;;;5018097;28;20965;-87
2022/05/14 06:18:11;;;;;;;6.07;2.70;;;15.70;99.90;;;;;;5018321;28;20899;-87
2022/05/14 06:20:39;;;;;;;4.20;1.93;;;15.80;99.90;;;;;;5018146;28;20479;-87
2022/05/14 06:23:06;;;;;;;4.60;2.37;;;15.80;99.90;;;;;;5017948;28;20486;-87
2022/05/14 06:25:33;;;;;;;6.03;2.30;;;16.00;99.90;;;;;;5018335;28;20490;-87
2022/05/14 06:28:01;;;;;;;8.43;2.30;;;16.00;99.90;;;;;;5017546;28;20514;-87
2022/05/14 06:30:30;;;;;;;5.33;2.07;;;16.10;99.90;;;;;;5017887;28;20449;-87
2022/05/14 06:33:03;;;;;;;4.50;1.83;;;16.10;99.90;;;;;;5017365;28;20429;-85
2022/05/14 06:35:31;;;;;;;5.00;2.20;;;16.20;99.90;;;;;;5016487;28;20441;-86
2022/05/14 06:37:58;;;;;;;4.43;2.07;;;16.30;99.90;;;;;;5017362;28;20482;-86
2022/05/14 06:40:24;;;;;;;7.13;2.33;;;16.40;99.90;;;;;;5017077;28;20489;-86
2022/05/14 06:42:52;;;;;;;4.30;1.70;;;16.60;99.90;;;;;;5018300;28;20541;-86
2022/05/14 06:45:18;;;;;;;4.50;2.27;;;16.70;99.90;;;;;;5021418;28;20443;-86
2022/05/14 06:47:45;;;;;;;3.57;1.80;;;16.80;99.90;;;;;;5032296;28;20457;-87
2022/05/14 06:50:13;;;;;;;5.20;2.47;;;16.90;99.90;;;;;;5032719;28;20510;-86
2022/05/14 06:52:43;;;;;;;4.07;1.73;;;17.10;99.90;;;;;;5020224;28;20441;-86
2022/05/14 06:55:12;;;;;;;5.90;2.30;;;17.20;99.90;;;;;;5017235;28;20508;-86
2022/05/14 06:57:39;;;;;;;7.77;2.43;;;17.30;99.90;;;;;;5018623;28;20527;-86
2022/05/14 07:00:07;;;;;;;6.60;2.43;;;17.50;99.90;;;;;;5028449;28;20523;-86
2022/05/14 07:02:35;;;;;;;5.20;2.77;;;17.60;99.90;;;;;;5028001;28;20921;-86
2022/05/14 07:07:49;;;;;;;7.57;2.43;;;17.80;99.90;;;;;;5018189;28;20405;-85
2022/05/14 07:10:16;;;;;;;5.03;2.47;;;17.90;99.90;;;;;;5017964;28;20469;-85
2022/05/14 07:12:43;;;;;;;6.50;1.93;;;18.00;99.90;;;;;;5017902;28;20457;-85
2022/05/14 07:15:12;;;;;;;4.20;2.17;;;18.20;99.90;;;;;;5016481;28;20900;-86
2022/05/14 07:17:38;;;;;;;6.67;2.00;;;18.20;99.90;;;;;;5016747;28;20517;-86
2022/05/14 07:20:07;;;;;;;7.60;2.30;;;18.30;99.90;;;;;;5015732;28;20493;-86
2022/05/14 07:22:34;;;;;;;5.20;1.90;;;18.30;99.90;;;;;;5018427;28;20536;-86
2022/05/14 07:25:02;;;;;;;5.40;2.00;;;18.40;99.90;;;;;;5019503;28;20477;-86
2022/05/14 07:27:29;;;;;;;3.30;1.47;;;18.50;99.70;;;;;;5020210;28;20449;-87
2022/05/14 07:29:56;;;;;;;6.73;2.10;;;18.60;99.30;;;;;;5018378;28;20446;-86
2022/05/14 07:32:23;;;;;;;7.43;1.70;;;18.70;99.30;;;;;;5017658;28;20457;-86
2022/05/14 07:34:49;;;;;;;4.70;2.20;;;18.70;99.00;;;;;;5019319;28;20490;-86
2022/05/14 07:37:22;;;;;;;5.17;1.50;;;18.80;99.10;;;;;;5018601;28;20473;-86
2022/05/14 07:39:52;;;;;;;4.03;1.73;;;18.80;97.30;;;;;;5018951;28;20478;-87
2022/05/14 07:42:27;;;;;;;4.43;1.37;;;18.90;97.20;;;;;;5028716;28;20980;-86
2022/05/14 07:44:56;;;;;;;8.23;1.80;;;18.80;97.70;;;;;;5029289;28;20438;-86
2022/05/14 07:47:23;;;;;;;8.13;2.90;;;19.00;98.20;;;;;;5037687;28;20435;-86
2022/05/14 07:49:52;;;;;;;5.90;2.40;;;19.00;99.30;;;;;;5038278;28;20454;-86
2022/05/14 07:52:20;;;;;;;6.10;2.70;;;19.00;99.20;;;;;;5035513;28;20450;-86
2022/05/14 07:54:47;;;;;;;7.47;2.97;;;19.00;98.60;;;;;;5028730;28;20486;-86
2022/05/14 07:57:16;;;;;;;5.40;3.37;;;19.00;99.70;;;;;;5027522;28;20442;-86
2022/05/14 07:59:44;;;;;;;5.83;3.00;;;19.10;99.90;;;;;;5026582;28;20491;-87
2022/05/14 08:02:22;;;;;;;5.97;2.47;;;19.10;99.50;;;;;;5025269;28;20477;-87
2022/05/14 08:04:49;;;;;;;11.07;4.17;;;19.10;98.70;;;;;;5026191;28;20544;-87
2022/05/14 08:07:16;;;;;;;8.07;3.33;;;19.10;99.90;;;;;;5025392;28;20450;-87
2022/05/14 08:09:43;;;;;;;8.00;2.80;;;19.00;99.90;;;;;;5045209;22;20522;-89
2022/05/14 08:12:12;;;;;;;9.03;3.43;;;19.10;99.90;;;;;;5034648;28;20434;-86
2022/05/14 08:14:40;;;;;;;7.17;3.27;;;19.20;99.70;;;;;;5040473;28;20663;-86
2022/05/14 08:17:09;;;;;;;5.40;2.63;;;19.30;99.90;;;;;;5030304;28;20450;-89
2022/05/14 08:19:37;;;;;;;9.60;3.13;;;19.40;98.60;;;;;;5024344;28;20467;-89
2022/05/14 08:24:52;;;;;;;6.00;2.70;;;19.30;99.10;;;;;;5024275;28;20422;-88
2022/05/14 08:27:20;;;;;;;4.80;2.30;;;19.40;98.80;;;;;;5034854;28;20512;-87
2022/05/14 08:29:48;;;;;;;11.20;2.60;;;19.50;98.10;;;;;;5033920;28;20435;-88
2022/05/14 08:32:18;;;;;;;6.60;2.43;;;19.40;98.10;;;;;;5037028;28;20509;-88
2022/05/14 08:34:45;;;;;;;6.10;2.40;;;19.40;98.40;;;;;;5038992;28;20469;-88
2022/05/14 08:37:13;;;;;;;5.00;2.13;;;19.40;98.10;;;;;;5037582;28;20466;-88
2022/05/14 08:39:42;;;;;;;4.00;2.33;;;19.50;97.80;;;;;;5032985;28;20450;-89
2022/05/14 08:42:12;;;;;;;6.00;2.57;;;19.60;97.60;;;;;;5038695;28;20501;-88
2022/05/14 08:44:42;;;;;;;8.73;2.80;;;19.80;96.90;;;;;;5033930;28;20453;-88
2022/05/14 08:47:27;;;;;;;3.97;2.00;;;19.90;96.60;;;;;;5034599;28;20544;-87
2022/05/14 08:49:59;;;;;;;7.33;2.50;;;20.10;95.80;;;;;;5035233;28;20458;-88
2022/05/14 08:52:28;;;;;;;4.40;2.50;;;20.20;95.40;;;;;;5024209;28;20426;-89
2022/05/14 08:54:58;;;;;;;8.00;2.73;;;20.20;95.80;;;;;;5020847;28;20552;-89
2022/05/14 08:57:33;;;;;;;6.57;2.10;;;20.30;95.70;;;;;;5023372;28;20451;-89
2022/05/14 09:00:01;;;;;;;6.40;2.70;;;20.20;95.40;;;;;;5023413;28;20481;-89
2022/05/14 09:02:33;;;;;;;4.97;3.40;;;20.10;95.90;;;;;;5023098;28;20842;-89
2022/05/14 09:05:02;;;;;;;6.07;2.70;;;20.20;95.60;;;;;;5021326;28;20827;-89
2022/05/14 09:07:29;;;;;;;4.73;1.90;;;20.30;95.20;;;;;;5021465;28;20411;-88
2022/05/14 09:09:58;;;;;;;5.90;2.30;;;20.30;95.10;;;;;;5020719;28;20840;-89
2022/05/14 09:12:28;;;;;;;8.33;2.67;;;20.30;94.50;;;;;;5022320;28;20466;-89
2022/05/14 09:14:58;;;;;;;6.50;2.93;;;20.30;94.70;;;;;;5022867;28;20470;-89
2022/05/14 09:17:29;;;;;;;7.23;2.57;;;20.40;94.90;;;;;;5021402;28;20454;-89
2022/05/14 09:19:59;;;;;;;6.37;2.87;;;20.40;94.30;;;;;;5021555;28;20951;-89
2022/05/14 09:22:36;;;;;;;7.17;2.30;;;20.50;93.40;;;;;;5021350;28;20903;-89
2022/05/14 09:25:22;;;;;;;5.13;2.40;;;20.50;93.60;;;;;;5038895;28;20462;-86
2022/05/14 09:27:54;;;;;;;5.37;2.70;;;20.50;93.40;;;;;;5037684;28;20453;-89
2022/05/14 09:30:34;;;;;;;4.60;2.77;;;20.60;94.40;;;;;;5035807;28;20471;-88
2022/05/14 09:33:01;;;;;;;5.00;2.23;;;20.60;94.00;;;;;;5033468;28;20439;-89
2022/05/14 09:35:32;;;;;;;5.87;2.70;;;20.50;94.30;;;;;;5020621;28;20496;-88
2022/05/14 09:38:10;;;;;;;8.40;2.37;;;20.50;94.60;;;;;;5020828;28;20850;-89
2022/05/14 09:40:38;;;;;;;4.67;2.57;;;20.70;93.90;;;;;;5022582;28;20528;-88
2022/05/14 09:43:12;;;;;;;4.03;2.40;;;20.70;93.90;;;;;;5022611;28;20458;-88
2022/05/14 09:45:47;;;;;;;6.13;2.50;;;20.60;94.00;;;;;;5023429;28;20444;-89
2022/05/14 09:48:19;;;;;;;6.50;2.37;;;20.70;93.90;;;;;;5020755;28;20493;-88
2022/05/14 09:50:52;;;;;;;5.20;2.50;;;20.70;93.50;;;;;;5020146;28;20464;-89
2022/05/14 09:53:28;;;;;;;4.27;2.17;;;20.80;93.10;;;;;;5022826;28;20454;-88
2022/05/14 09:56:13;;;;;;;5.43;2.90;;;20.90;93.30;;;;;;5024946;28;20485;-89
2022/05/14 09:58:51;;;;;;;5.40;2.43;;;21.00;92.70;;;;;;5022455;28;20908;-88
2022/05/14 10:01:26;;;;;;;8.40;2.20;;;21.10;92.20;;;;;;5022863;28;20522;-88
2022/05/14 10:04:07;;;;;;;7.83;2.27;;;21.10;92.80;;;;;;5020473;28;20553;-89
2022/05/14 10:06:43;;;;;;;7.43;3.07;;;21.10;92.30;;;;;;5019835;28;20522;-89
2022/05/14 10:09:18;;;;;;;7.33;2.77;;;21.10;92.70;;;;;;5019604;28;20517;-89
2022/05/14 10:11:48;;;;;;;8.80;3.37;;;21.40;93.70;;;;;;5036293;28;20449;-88
2022/05/14 10:14:30;;;;;;;3.63;1.93;;;21.40;92.70;;;;;;5030435;28;20488;-88
2022/05/14 10:17:09;;;;;;;5.30;2.47;;;21.30;92.80;;;;;;5024951;28;20438;-88
2022/05/14 10:20:01;;;;;;;10.10;3.20;;;21.30;93.10;;;;;;5027705;28;20482;-87
2022/05/14 10:28:14;;;;;;;6.03;2.70;;;21.50;92.20;;;;;;5019785;28;20438;-89
2022/05/14 10:30:54;;;;;;;5.00;2.63;;;21.60;91.70;;;;;;5020510;28;20452;-89
2022/05/14 10:33:24;;;;;;;5.57;2.50;;;21.80;91.70;;;;;;5021273;28;20914;-91
2022/05/14 10:36:00;;;;;;;5.43;2.33;;;21.70;90.40;;;;;;5018865;28;20605;-90
2022/05/14 10:38:34;;;;;;;5.80;2.50;;;21.80;90.70;;;;;;5019196;28;20454;-90
2022/05/14 10:41:08;;;;;;;7.40;2.40;;;21.80;91.30;;;;;;5022135;28;20462;-89
2022/05/14 10:43:44;;;;;;;6.47;2.07;;;21.70;91.70;;;;;;5021767;28;20439;-88
2022/05/14 10:46:16;;;;;;;8.30;2.63;;;21.80;91.50;;;;;;5028822;28;20523;-89
2022/05/14 10:48:51;;;;;;;12.73;2.77;;;21.90;91.00;;;;;;5031363;28;20526;-88
2022/05/14 10:51:32;;;;;;;6.17;2.50;;;21.60;91.30;;;;;;5036437;28;20419;-87
2022/05/14 10:54:01;;;;;;;4.50;2.27;;;21.50;91.50;;;;;;5034078;28;20718;-88
2022/05/14 10:56:34;;;;;;;6.97;2.37;;;21.60;91.60;;;;;;5022710;28;20493;-88
2022/05/14 10:59:05;;;;;;;5.97;2.50;;;21.80;91.10;;;;;;5020286;28;20458;-88
2022/05/14 11:01:37;;;;;;;6.63;2.23;;;21.80;90.80;;;;;;5020772;28;20435;-89
2022/05/14 11:04:15;;;;;;;6.57;2.77;;;21.70;90.90;;;;;;5027499;28;20482;-88
2022/05/14 11:06:56;;;;;;;4.50;2.17;;;21.80;91.50;;;;;;5035393;28;20473;-87
2022/05/14 11:09:40;;;;;;;8.70;2.20;;;22.10;90.70;;;;;;5037226;28;20490;-87
2022/05/14 11:12:10;;;;;;;4.13;1.83;;;22.20;89.70;;;;;;5036990;28;20414;-86
2022/05/14 11:14:41;;;;;;;7.30;2.00;;;22.10;89.80;;;;;;5036612;28;20550;-86
2022/05/14 11:17:25;;;;;;;9.40;2.70;;;22.00;90.10;;;;;;5034680;28;20455;-88
2022/05/14 11:19:53;;;;;;;8.37;2.70;;;21.90;90.00;;;;;;5023095;28;20478;-89
2022/05/14 11:22:24;;;;;;;5.73;2.53;;;21.90;90.50;;;;;;5024336;28;20549;-88
2022/05/14 11:24:53;;;;;;;8.17;2.87;;;21.90;90.10;;;;;;5023908;28;20442;-88
2022/05/14 11:27:30;;;;;;;7.80;2.67;;;22.00;90.30;;;;;;5024201;28;20470;-89
2022/05/14 11:30:02;;;;;;;7.33;2.00;;;22.20;90.10;;;;;;5025861;28;20557;-88
2022/05/14 11:32:45;;;;;;;6.90;2.57;;;22.40;88.80;;;;;;5026599;28;20427;-88
2022/05/14 11:35:12;;;;;;;6.63;2.63;;;22.60;87.80;;;;;;5040399;28;20491;-87
2022/05/14 11:37:43;;;;;;;6.50;2.00;;;22.30;87.00;;;;;;5040366;28;20537;-86
2022/05/14 11:40:30;;;;;;;3.87;2.20;;;22.20;87.30;;;;;;5036248;28;20477;-88
2022/05/14 11:43:25;;;;;;;5.40;2.10;;;22.30;86.70;;;;;;5040409;28;20446;-86
2022/05/14 11:46:01;;;;;;;4.20;1.80;;;22.20;86.80;;;;;;5040585;28;20423;-86
2022/05/14 11:48:35;;;;;;;4.13;1.73;;;22.20;86.90;;;;;;5040096;28;20465;-86
2022/05/14 11:51:09;;;;;;;4.73;2.50;;;22.20;86.40;;;;;;5040231;28;20431;-87
2022/05/14 11:53:55;;;;;;;6.40;2.20;;;22.20;86.60;;;;;;5040407;28;20491;-88
2022/05/14 11:56:33;;;;;;;5.53;2.20;;;22.40;86.20;;;;;;5039633;28;20474;-87
2022/05/14 11:59:06;;;;;;;8.50;2.00;;;22.50;85.00;;;;;;5032440;28;20484;-89
2022/05/14 12:01:37;;;;;;;4.80;1.93;;;22.50;84.90;;;;;;5026437;28;20533;-88
2022/05/14 12:04:14;;;;;;;3.50;1.67;;;22.40;84.70;;;;;;5028719;28;20547;-89
2022/05/14 12:06:56;;;;;;;5.10;2.30;;;22.50;85.20;;;;;;5035752;28;20673;-88
2022/05/14 12:09:48;;;;;;;4.33;1.73;;;22.50;84.50;;;;;;5027546;28;20478;-87
2022/05/14 12:12:23;;;;;;;4.20;1.93;;;22.70;83.70;;;;;;5040078;28;20438;-86
2022/05/14 12:14:51;;;;;;;4.20;1.60;;;22.40;83.30;;;;;;5037072;28;20582;-88
2022/05/14 12:17:22;;;;;;;5.63;2.73;;;22.30;83.50;;;;;;5033668;28;20517;-88
2022/05/14 12:19:57;;;;;;;4.97;1.90;;;22.30;84.30;;;;;;5029310;28;20477;-89
2022/05/14 12:22:29;;;;;;;4.50;1.73;;;22.40;83.10;;;;;;5025107;28;20439;-88
2022/05/14 12:24:59;;;;;;;5.70;1.70;;;22.50;83.20;;;;;;5023499;28;20450;-88
2022/05/14 12:27:29;;;;;;;3.90;1.93;;;22.70;82.40;;;;;;5024049;28;20562;-88
2022/05/14 12:29:59;;;;;;;4.57;1.77;;;22.70;81.50;;;;;;5023332;28;20874;-88
2022/05/14 12:35:19;;;;;;;6.63;1.60;;;22.90;81.70;;;;;;5027259;28;20421;-88
2022/05/14 12:37:47;;;;;;;4.87;1.83;;;22.90;81.40;;;;;;5025058;28;20433;-89
2022/05/14 12:40:28;;;;;;;4.73;1.77;;;22.80;80.40;;;;;;5028601;28;20459;-89
2022/05/14 12:42:57;;;;;;;4.07;1.90;;;22.90;80.40;;;;;;5037720;28;20470;-87
2022/05/14 12:45:35;;;;;;;4.03;2.17;;;22.80;79.70;;;;;;5039869;28;20430;-85
2022/05/14 12:48:03;;;;;;;6.90;2.37;;;23.00;79.80;;;;;;5039836;28;20426;-85
2022/05/14 12:50:32;;;;;;;7.50;2.13;;;23.00;78.30;;;;;;5036195;28;20467;-88
2022/05/14 12:53:01;;;;;;;5.97;2.43;;;23.10;79.00;;;;;;5036473;28;20446;-88
2022/05/14 12:55:33;;;;;;;12.40;2.20;;;23.00;78.40;;;;;;5037392;28;20466;-88
2022/05/14 12:58:03;;;;;;;5.63;2.03;;;23.00;78.40;;;;;;5039326;28;20441;-87
2022/05/14 13:00:34;;;;;;;6.73;2.43;;;23.10;78.00;;;;;;5035326;28;20433;-87
2022/05/14 13:03:07;;;;;;;4.70;2.07;;;23.20;77.20;;;;;;5037091;28;20423;-88
2022/05/14 13:05:39;;;;;;;6.30;2.00;;;23.30;77.70;;;;;;5038173;28;20446;-89
2022/05/14 13:08:11;;;;;;;8.00;2.33;;;23.20;76.30;;;;;;5036816;28;20435;-89
2022/05/14 13:10:40;;;;;;;4.70;1.90;;;23.10;76.80;;;;;;5033479;28;20458;-89
2022/05/14 13:13:10;;;;;;;4.53;1.90;;;23.10;76.80;;;;;;5030402;28;20450;-89
2022/05/14 13:15:40;;;;;;;5.70;1.90;;;23.00;77.00;;;;;;5034245;28;20466;-89
2022/05/14 13:18:13;;;;;;;5.60;2.00;;;23.10;77.40;;;;;;5030096;28;20462;-87
2022/05/14 13:20:41;;;;;;;4.23;1.70;;;23.30;76.10;;;;;;5034700;28;20522;-88
2022/05/14 13:23:14;;;;;;;6.70;2.13;;;23.40;76.10;;;;;;5035603;28;20454;-88